sensor_id;sensor_type;location;lat;lon;timestamp;temperature;humidity
36322;DHT22;23564;48.290;11.460;2022-11-25T00:01:06;2.30;1.00
36322;DHT22;23564;48.290;11.460;2022-11-25T00:03:32;2.30;1.00
36322;DHT22;23564;48.290;11.460;2022-11-25T00:08:35;2.20;1.00
36322;DHT22;23564;48.290;11.460;2022-11-25T00:11:02;2.20;1.00
36322;DHT22;23564;48.290;11.460;2022-11-25T00:13:28;2.20;1.00
36322;DHT22;23564;48.290;11.460;2022-11-25T00:15:53;2.20;1.00
36322;DHT22;23564;48.290;11.460;2022-11-25T00:18:19;2.10;1.00
36322;DHT22;23564;48.290;11.460;2022-11-25T00:20:44;2.10;1.00
36322;DHT22;23564;48.290;11.460;2022-11-25T00:23:10;2.10;1.00
36322;DHT22;23564;48.290;11.460;2022-11-25T00:25:36;2.10;1.00
36322;DHT22;23564;48.290;11.460;2022-11-25T00:28:01;2.10;1.00
36322;DHT22;23564;48.290;11.460;2022-11-25T00:30:27;2.00;1.00
36322;DHT22;23564;48.290;11.460;2022-11-25T00:32:53;1.90;1.00
36322;DHT22;23564;48.290;11.460;2022-11-25T00:35:18;2.00;1.00
36322;DHT22;23564;48.290;11.460;2022-11-25T00:37:44;2.00;1.00
36322;DHT22;23564;48.290;11.460;2022-11-25T00:40:10;2.00;1.00
36322;DHT22;23564;48.290;11.460;2022-11-25T00:42:36;1.90;1.00
36322;DHT22;23564;48.290;11.460;2022-11-25T00:45:20;1.90;1.00
36322;DHT22;23564;48.290;11.460;2022-11-25T00:47:46;1.90;1.00
36322;DHT22;23564;48.290;11.460;2022-11-25T00:50:11;1.90;1.00
36322;DHT22;23564;48.290;11.460;2022-11-25T00:52:37;1.80;1.00
36322;DHT22;23564;48.290;11.460;2022-11-25T00:55:03;1.80;1.00
36322;DHT22;23564;48.290;11.460;2022-11-25T00:57:29;1.90;1.00
36322;DHT22;23564;48.290;11.460;2022-11-25T00:59:54;1.90;1.00
36322;DHT22;23564;48.290;11.460;2022-11-25T01:02:20;1.90;1.00
36322;DHT22;23564;48.290;11.460;2022-11-25T01:04:46;1.80;1.00
36322;DHT22;23564;48.290;11.460;2022-11-25T01:07:12;1.80;1.00
36322;DHT22;23564;48.290;11.460;2022-11-25T01:09:38;1.80;1.00
36322;DHT22;23564;48.290;11.460;2022-11-25T01:12:04;1.80;1.00
36322;DHT22;23564;48.290;11.460;2022-11-25T01:14:30;1.80;1.00
36322;DHT22;23564;48.290;11.460;2022-11-25T01:16:56;1.80;1.00
36322;DHT22;23564;48.290;11.460;2022-11-25T01:19:22;1.80;1.00
36322;DHT22;23564;48.290;11.460;2022-11-25T01:21:48;1.70;1.00
36322;DHT22;23564;48.290;11.460;2022-11-25T01:24:15;1.70;1.00
36322;DHT22;23564;48.290;11.460;2022-11-25T01:26:42;1.70;1.00
36322;DHT22;23564;48.290;11.460;2022-11-25T01:29:16;1.70;1.00
36322;DHT22;23564;48.290;11.460;2022-11-25T01:31:44;1.70;1.00
36322;DHT22;23564;48.290;11.460;2022-11-25T01:34:18;1.70;1.00
36322;DHT22;23564;48.290;11.460;2022-11-25T01:36:44;1.70;1.00
36322;DHT22;23564;48.290;11.460;2022-11-25T01:39:16;1.70;1.00
36322;DHT22;23564;48.290;11.460;2022-11-25T01:41:42;1.60;1.00
36322;DHT22;23564;48.290;11.460;2022-11-25T01:44:22;1.60;1.00
36322;DHT22;23564;48.290;11.460;2022-11-25T01:49:29;1.60;1.00
36322;DHT22;23564;48.290;11.460;2022-11-25T01:52:05;1.70;1.00
36322;DHT22;23564;48.290;11.460;2022-11-25T01:57:30;1.70;1.00
36322;DHT22;23564;48.290;11.460;2022-11-25T01:59:58;1.60;1.00
36322;DHT22;23564;48.290;11.460;2022-11-25T02:02:27;1.70;1.00
36322;DHT22;23564;48.290;11.460;2022-11-25T02:04:53;1.70;1.00
36322;DHT22;23564;48.290;11.460;2022-11-25T02:07:42;1.70;1.00
36322;DHT22;23564;48.290;11.460;2022-11-25T02:10:12;1.80;1.00
36322;DHT22;23564;48.290;11.460;2022-11-25T02:12:40;1.80;1.00
36322;DHT22;23564;48.290;11.460;2022-11-25T02:15:06;1.90;1.00
36322;DHT22;23564;48.290;11.460;2022-11-25T02:17:32;1.90;1.00
36322;DHT22;23564;48.290;11.460;2022-11-25T02:20:07;1.80;1.00
36322;DHT22;23564;48.290;11.460;2022-11-25T02:22:56;1.80;1.00
36322;DHT22;23564;48.290;11.460;2022-11-25T02:30:27;1.80;1.00
36322;DHT22;23564;48.290;11.460;2022-11-25T02:32:53;1.80;1.00
36322;DHT22;23564;48.290;11.460;2022-11-25T02:35:42;1.80;1.00
36322;DHT22;23564;48.290;11.460;2022-11-25T02:38:24;1.80;1.00
36322;DHT22;23564;48.290;11.460;2022-11-25T02:40:56;1.80;1.00
36322;DHT22;23564;48.290;11.460;2022-11-25T02:43:24;1.80;1.00
36322;DHT22;23564;48.290;11.460;2022-11-25T02:45:55;1.80;1.00
36322;DHT22;23564;48.290;11.460;2022-11-25T02:48:21;1.90;1.00
36322;DHT22;23564;48.290;11.460;2022-11-25T02:50:47;1.80;1.00
36322;DHT22;23564;48.290;11.460;2022-11-25T02:53:13;1.80;1.00
36322;DHT22;23564;48.290;11.460;2022-11-25T02:55:38;1.80;1.00
36322;DHT22;23564;48.290;11.460;2022-11-25T02:58:04;1.80;1.00
36322;DHT22;23564;48.290;11.460;2022-11-25T03:00:30;1.80;1.00
36322;DHT22;23564;48.290;11.460;2022-11-25T03:02:55;1.80;1.00
36322;DHT22;23564;48.290;11.460;2022-11-25T03:05:21;1.90;1.00
36322;DHT22;23564;48.290;11.460;2022-11-25T03:07:48;1.80;1.00
36322;DHT22;23564;48.290;11.460;2022-11-25T03:10:13;1.90;1.00
36322;DHT22;23564;48.290;11.460;2022-11-25T03:12:39;1.80;1.00
36322;DHT22;23564;48.290;11.460;2022-11-25T03:15:05;1.90;1.00
36322;DHT22;23564;48.290;11.460;2022-11-25T03:17:31;1.80;1.00
36322;DHT22;23564;48.290;11.460;2022-11-25T03:19:57;1.90;1.00
36322;DHT22;23564;48.290;11.460;2022-11-25T03:22:22;1.90;1.00
36322;DHT22;23564;48.290;11.460;2022-11-25T03:24:48;1.90;1.00
36322;DHT22;23564;48.290;11.460;2022-11-25T03:27:14;1.90;1.00
36322;DHT22;23564;48.290;11.460;2022-11-25T03:29:39;1.90;1.00
36322;DHT22;23564;48.290;11.460;2022-11-25T03:32:05;1.90;1.00
36322;DHT22;23564;48.290;11.460;2022-11-25T03:34:31;1.80;1.00
36322;DHT22;23564;48.290;11.460;2022-11-25T03:36:57;1.90;1.00
36322;DHT22;23564;48.290;11.460;2022-11-25T03:39:23;1.80;1.00
36322;DHT22;23564;48.290;11.460;2022-11-25T03:41:48;1.80;1.00
36322;DHT22;23564;48.290;11.460;2022-11-25T03:44:14;1.80;1.00
36322;DHT22;23564;48.290;11.460;2022-11-25T03:46:40;1.80;1.00
36322;DHT22;23564;48.290;11.460;2022-11-25T03:49:05;1.80;1.00
36322;DHT22;23564;48.290;11.460;2022-11-25T03:51:31;1.80;1.00
36322;DHT22;23564;48.290;11.460;2022-11-25T03:53:56;1.80;1.00
36322;DHT22;23564;48.290;11.460;2022-11-25T03:56:22;1.90;1.00
36322;DHT22;23564;48.290;11.460;2022-11-25T03:58:48;1.90;1.00
36322;DHT22;23564;48.290;11.460;2022-11-25T04:01:13;1.80;1.00
36322;DHT22;23564;48.290;11.460;2022-11-25T04:03:39;1.80;1.00
36322;DHT22;23564;48.290;11.460;2022-11-25T04:06:04;1.80;1.00
36322;DHT22;23564;48.290;11.460;2022-11-25T04:08:30;1.80;1.00
36322;DHT22;23564;48.290;11.460;2022-11-25T04:10:55;1.90;1.00
36322;DHT22;23564;48.290;11.460;2022-11-25T04:13:21;1.90;1.00
36322;DHT22;23564;48.290;11.460;2022-11-25T04:15:48;1.80;1.00
36322;DHT22;23564;48.290;11.460;2022-11-25T04:18:15;1.80;1.00
36322;DHT22;23564;48.290;11.460;2022-11-25T04:20:41;1.80;1.00
36322;DHT22;23564;48.290;11.460;2022-11-25T04:23:08;1.90;1.00
36322;DHT22;23564;48.290;11.460;2022-11-25T04:25:35;1.80;1.00
36322;DHT22;23564;48.290;11.460;2022-11-25T04:28:01;1.90;1.00
36322;DHT22;23564;48.290;11.460;2022-11-25T04:30:27;1.90;1.00
36322;DHT22;23564;48.290;11.460;2022-11-25T04:32:53;1.90;1.00
36322;DHT22;23564;48.290;11.460;2022-11-25T04:35:19;1.90;1.00
36322;DHT22;23564;48.290;11.460;2022-11-25T04:37:44;1.90;1.00
36322;DHT22;23564;48.290;11.460;2022-11-25T04:40:10;1.90;1.00
36322;DHT22;23564;48.290;11.460;2022-11-25T04:42:36;1.80;1.00
36322;DHT22;23564;48.290;11.460;2022-11-25T04:45:07;1.90;1.00
36322;DHT22;23564;48.290;11.460;2022-11-25T04:47:33;1.80;1.00
36322;DHT22;23564;48.290;11.460;2022-11-25T04:49:59;1.80;1.00
36322;DHT22;23564;48.290;11.460;2022-11-25T04:52:25;1.80;1.00
36322;DHT22;23564;48.290;11.460;2022-11-25T04:54:51;1.80;1.00
36322;DHT22;23564;48.290;11.460;2022-11-25T04:57:16;1.80;1.00
36322;DHT22;23564;48.290;11.460;2022-11-25T04:59:42;1.80;1.00
36322;DHT22;23564;48.290;11.460;2022-11-25T05:02:12;1.90;1.00
36322;DHT22;23564;48.290;11.460;2022-11-25T05:04:39;1.80;1.00
36322;DHT22;23564;48.290;11.460;2022-11-25T05:07:05;1.80;1.00
36322;DHT22;23564;48.290;11.460;2022-11-25T05:09:31;1.70;1.00
36322;DHT22;23564;48.290;11.460;2022-11-25T05:11:56;1.70;1.00
36322;DHT22;23564;48.290;11.460;2022-11-25T05:14:22;1.70;1.00
36322;DHT22;23564;48.290;11.460;2022-11-25T05:16:50;1.60;1.00
36322;DHT22;23564;48.290;11.460;2022-11-25T05:19:15;1.60;1.00
36322;DHT22;23564;48.290;11.460;2022-11-25T05:21:41;1.60;1.00
36322;DHT22;23564;48.290;11.460;2022-11-25T05:24:06;1.60;1.00
36322;DHT22;23564;48.290;11.460;2022-11-25T05:26:32;1.60;1.00
36322;DHT22;23564;48.290;11.460;2022-11-25T05:28:57;1.60;1.00
36322;DHT22;23564;48.290;11.460;2022-11-25T05:31:23;1.60;1.00
36322;DHT22;23564;48.290;11.460;2022-11-25T05:33:48;1.50;1.00
36322;DHT22;23564;48.290;11.460;2022-11-25T05:36:14;1.50;1.00
36322;DHT22;23564;48.290;11.460;2022-11-25T05:38:39;1.50;1.00
36322;DHT22;23564;48.290;11.460;2022-11-25T05:41:06;1.50;1.00
36322;DHT22;23564;48.290;11.460;2022-11-25T05:43:32;1.50;1.00
36322;DHT22;23564;48.290;11.460;2022-11-25T05:45:58;1.50;1.00
36322;DHT22;23564;48.290;11.460;2022-11-25T05:48:24;1.50;1.00
36322;DHT22;23564;48.290;11.460;2022-11-25T05:50:49;1.40;1.00
36322;DHT22;23564;48.290;11.460;2022-11-25T05:53:15;1.40;1.00
36322;DHT22;23564;48.290;11.460;2022-11-25T05:55:42;1.50;1.00
36322;DHT22;23564;48.290;11.460;2022-11-25T05:58:08;1.60;1.00
36322;DHT22;23564;48.290;11.460;2022-11-25T06:00:34;1.60;1.00
36322;DHT22;23564;48.290;11.460;2022-11-25T06:03:00;1.60;1.00
36322;DHT22;23564;48.290;11.460;2022-11-25T06:05:25;1.70;1.00
36322;DHT22;23564;48.290;11.460;2022-11-25T06:07:51;1.60;1.00
36322;DHT22;23564;48.290;11.460;2022-11-25T06:10:18;1.60;1.00
36322;DHT22;23564;48.290;11.460;2022-11-25T06:12:43;1.70;1.00
36322;DHT22;23564;48.290;11.460;2022-11-25T06:15:09;1.70;1.00
36322;DHT22;23564;48.290;11.460;2022-11-25T06:17:35;1.70;1.00
36322;DHT22;23564;48.290;11.460;2022-11-25T06:20:02;1.80;1.00
36322;DHT22;23564;48.290;11.460;2022-11-25T06:22:27;1.80;1.00
36322;DHT22;23564;48.290;11.460;2022-11-25T06:24:53;1.80;1.00
36322;DHT22;23564;48.290;11.460;2022-11-25T06:27:19;1.80;1.00
36322;DHT22;23564;48.290;11.460;2022-11-25T06:29:44;1.90;1.00
36322;DHT22;23564;48.290;11.460;2022-11-25T06:32:10;1.90;1.00
36322;DHT22;23564;48.290;11.460;2022-11-25T06:34:35;1.80;1.00
36322;DHT22;23564;48.290;11.460;2022-11-25T06:37:06;1.90;1.00
36322;DHT22;23564;48.290;11.460;2022-11-25T06:39:31;1.90;1.00
36322;DHT22;23564;48.290;11.460;2022-11-25T06:41:57;1.90;1.00
36322;DHT22;23564;48.290;11.460;2022-11-25T06:44:22;2.00;1.00
36322;DHT22;23564;48.290;11.460;2022-11-25T06:46:48;2.00;1.00
36322;DHT22;23564;48.290;11.460;2022-11-25T06:49:13;2.10;1.00
36322;DHT22;23564;48.290;11.460;2022-11-25T06:51:39;2.10;1.00
36322;DHT22;23564;48.290;11.460;2022-11-25T06:54:05;2.10;1.00
36322;DHT22;23564;48.290;11.460;2022-11-25T06:56:32;2.10;1.00
36322;DHT22;23564;48.290;11.460;2022-11-25T06:58:58;2.10;1.00
36322;DHT22;23564;48.290;11.460;2022-11-25T07:01:26;2.10;1.00
36322;DHT22;23564;48.290;11.460;2022-11-25T07:03:55;2.10;1.00
36322;DHT22;23564;48.290;11.460;2022-11-25T07:06:22;2.20;1.00
36322;DHT22;23564;48.290;11.460;2022-11-25T07:08:49;2.20;1.00
36322;DHT22;23564;48.290;11.460;2022-11-25T07:13:45;2.30;1.00
36322;DHT22;23564;48.290;11.460;2022-11-25T07:16:11;2.30;1.00
36322;DHT22;23564;48.290;11.460;2022-11-25T07:18:38;2.40;1.00
36322;DHT22;23564;48.290;11.460;2022-11-25T07:21:12;2.40;1.00
36322;DHT22;23564;48.290;11.460;2022-11-25T07:23:39;2.40;1.00
36322;DHT22;23564;48.290;11.460;2022-11-25T07:26:10;2.40;1.00
36322;DHT22;23564;48.290;11.460;2022-11-25T07:28:37;2.50;1.00
36322;DHT22;23564;48.290;11.460;2022-11-25T07:31:17;2.50;1.00
36322;DHT22;23564;48.290;11.460;2022-11-25T07:33:44;2.50;1.00
36322;DHT22;23564;48.290;11.460;2022-11-25T07:36:11;2.60;1.00
36322;DHT22;23564;48.290;11.460;2022-11-25T07:38:37;2.60;1.00
36322;DHT22;23564;48.290;11.460;2022-11-25T07:41:12;2.70;1.00
36322;DHT22;23564;48.290;11.460;2022-11-25T07:43:37;2.70;1.00
36322;DHT22;23564;48.290;11.460;2022-11-25T07:46:12;2.70;1.00
36322;DHT22;23564;48.290;11.460;2022-11-25T07:48:38;2.70;1.00
36322;DHT22;23564;48.290;11.460;2022-11-25T07:51:04;2.80;1.00
36322;DHT22;23564;48.290;11.460;2022-11-25T07:53:30;2.90;1.00
36322;DHT22;23564;48.290;11.460;2022-11-25T07:56:00;2.90;1.00
36322;DHT22;23564;48.290;11.460;2022-11-25T07:58:26;3.00;1.00
36322;DHT22;23564;48.290;11.460;2022-11-25T08:00:51;3.00;1.00
36322;DHT22;23564;48.290;11.460;2022-11-25T08:03:17;3.00;1.00
36322;DHT22;23564;48.290;11.460;2022-11-25T08:05:42;3.10;1.00
36322;DHT22;23564;48.290;11.460;2022-11-25T08:08:08;3.10;1.00
36322;DHT22;23564;48.290;11.460;2022-11-25T08:10:33;3.10;1.00
36322;DHT22;23564;48.290;11.460;2022-11-25T08:12:59;3.10;1.00
36322;DHT22;23564;48.290;11.460;2022-11-25T08:15:24;3.10;1.00
36322;DHT22;23564;48.290;11.460;2022-11-25T08:17:50;3.20;1.00
36322;DHT22;23564;48.290;11.460;2022-11-25T08:20:17;3.20;1.00
36322;DHT22;23564;48.290;11.460;2022-11-25T08:22:42;3.30;1.00
36322;DHT22;23564;48.290;11.460;2022-11-25T08:25:08;3.30;1.00
36322;DHT22;23564;48.290;11.460;2022-11-25T08:27:34;3.30;1.00
36322;DHT22;23564;48.290;11.460;2022-11-25T08:29:59;3.40;1.00
36322;DHT22;23564;48.290;11.460;2022-11-25T08:32:25;3.50;1.00
36322;DHT22;23564;48.290;11.460;2022-11-25T08:34:50;3.60;1.00
36322;DHT22;23564;48.290;11.460;2022-11-25T08:37:16;3.60;1.00
36322;DHT22;23564;48.290;11.460;2022-11-25T08:39:41;3.60;1.00
36322;DHT22;23564;48.290;11.460;2022-11-25T08:42:07;3.70;1.00
36322;DHT22;23564;48.290;11.460;2022-11-25T08:44:33;3.70;1.00
36322;DHT22;23564;48.290;11.460;2022-11-25T08:46:59;3.80;1.00
36322;DHT22;23564;48.290;11.460;2022-11-25T08:49:25;3.90;1.00
36322;DHT22;23564;48.290;11.460;2022-11-25T08:51:53;3.90;1.00
36322;DHT22;23564;48.290;11.460;2022-11-25T08:54:19;3.90;1.00
36322;DHT22;23564;48.290;11.460;2022-11-25T08:56:44;3.90;1.00
36322;DHT22;23564;48.290;11.460;2022-11-25T08:59:10;3.90;1.00
36322;DHT22;23564;48.290;11.460;2022-11-25T09:01:35;3.90;1.00
36322;DHT22;23564;48.290;11.460;2022-11-25T09:04:01;4.00;1.00
36322;DHT22;23564;48.290;11.460;2022-11-25T09:06:28;4.00;1.00
36322;DHT22;23564;48.290;11.460;2022-11-25T09:08:55;4.10;1.00
36322;DHT22;23564;48.290;11.460;2022-11-25T09:11:21;4.20;1.00
36322;DHT22;23564;48.290;11.460;2022-11-25T09:13:46;4.30;1.00
36322;DHT22;23564;48.290;11.460;2022-11-25T09:16:12;4.30;1.00
36322;DHT22;23564;48.290;11.460;2022-11-25T09:18:37;4.40;1.00
36322;DHT22;23564;48.290;11.460;2022-11-25T09:21:09;4.40;1.00
36322;DHT22;23564;48.290;11.460;2022-11-25T09:23:36;4.50;1.00
36322;DHT22;23564;48.290;11.460;2022-11-25T09:26:03;4.60;1.00
36322;DHT22;23564;48.290;11.460;2022-11-25T09:28:30;4.70;1.00
36322;DHT22;23564;48.290;11.460;2022-11-25T09:30:55;4.80;1.00
36322;DHT22;23564;48.290;11.460;2022-11-25T09:33:21;4.80;1.00
36322;DHT22;23564;48.290;11.460;2022-11-25T09:35:47;4.90;1.00
36322;DHT22;23564;48.290;11.460;2022-11-25T09:38:13;5.00;1.00
36322;DHT22;23564;48.290;11.460;2022-11-25T09:52:27;5.10;99.90
36322;DHT22;23564;48.290;11.460;2022-11-25T09:55:04;5.20;99.90
36322;DHT22;23564;48.290;11.460;2022-11-25T10:00:42;5.30;99.90
36322;DHT22;23564;48.290;11.460;2022-11-25T10:03:33;5.30;99.90
36322;DHT22;23564;48.290;11.460;2022-11-25T10:06:16;5.20;99.90
36322;DHT22;23564;48.290;11.460;2022-11-25T10:08:55;5.30;99.90
36322;DHT22;23564;48.290;11.460;2022-11-25T10:14:51;5.30;99.90
36322;DHT22;23564;48.290;11.460;2022-11-25T10:19:46;5.30;1.00
36322;DHT22;23564;48.290;11.460;2022-11-25T10:22:22;5.30;1.00
36322;DHT22;23564;48.290;11.460;2022-11-25T10:24:51;5.20;1.00
36322;DHT22;23564;48.290;11.460;2022-11-25T10:30:16;5.20;1.00
36322;DHT22;23564;48.290;11.460;2022-11-25T10:33:02;5.20;1.00
36322;DHT22;23564;48.290;11.460;2022-11-25T10:35:34;5.20;1.00
36322;DHT22;23564;48.290;11.460;2022-11-25T10:38:02;5.20;1.00
36322;DHT22;23564;48.290;11.460;2022-11-25T10:40:29;5.20;1.00
36322;DHT22;23564;48.290;11.460;2022-11-25T10:42:55;5.20;1.00
36322;DHT22;23564;48.290;11.460;2022-11-25T10:45:27;5.20;99.90
36322;DHT22;23564;48.290;11.460;2022-11-25T10:48:22;5.20;99.90
36322;DHT22;23564;48.290;11.460;2022-11-25T10:51:02;5.20;99.90
36322;DHT22;23564;48.290;11.460;2022-11-25T10:53:29;5.30;99.90
36322;DHT22;23564;48.290;11.460;2022-11-25T10:56:01;5.30;99.90
36322;DHT22;23564;48.290;11.460;2022-11-25T10:58:36;5.30;99.90
36322;DHT22;23564;48.290;11.460;2022-11-25T11:01:22;5.40;99.90
36322;DHT22;23564;48.290;11.460;2022-11-25T11:04:03;5.40;99.90
36322;DHT22;23564;48.290;11.460;2022-11-25T11:06:41;5.40;99.90
36322;DHT22;23564;48.290;11.460;2022-11-25T11:09:31;5.40;99.90
36322;DHT22;23564;48.290;11.460;2022-11-25T11:11:56;5.50;99.90
36322;DHT22;23564;48.290;11.460;2022-11-25T11:14:22;5.50;99.90
36322;DHT22;23564;48.290;11.460;2022-11-25T11:16:53;5.40;1.00
36322;DHT22;23564;48.290;11.460;2022-11-25T11:19:21;5.50;1.00
36322;DHT22;23564;48.290;11.460;2022-11-25T11:21:48;5.50;1.00
36322;DHT22;23564;48.290;11.460;2022-11-25T11:24:29;5.60;1.00
36322;DHT22;23564;48.290;11.460;2022-11-25T11:27:06;5.60;1.00
36322;DHT22;23564;48.290;11.460;2022-11-25T11:29:39;5.50;1.00
36322;DHT22;23564;48.290;11.460;2022-11-25T11:32:06;5.50;1.00
36322;DHT22;23564;48.290;11.460;2022-11-25T11:37:46;5.60;1.00
36322;DHT22;23564;48.290;11.460;2022-11-25T11:40:29;5.80;1.00
36322;DHT22;23564;48.290;11.460;2022-11-25T11:51:41;6.50;99.90
36322;DHT22;23564;48.290;11.460;2022-11-25T11:54:17;6.50;99.90
36322;DHT22;23564;48.290;11.460;2022-11-25T11:56:54;6.60;99.90
36322;DHT22;23564;48.290;11.460;2022-11-25T12:04:48;6.70;99.90
36322;DHT22;23564;48.290;11.460;2022-11-25T12:07:31;6.70;99.90
36322;DHT22;23564;48.290;11.460;2022-11-25T12:10:01;6.80;75.50
36322;DHT22;23564;48.290;11.460;2022-11-25T12:12:59;6.80;1.00
36322;DHT22;23564;48.290;11.460;2022-11-25T12:18:32;6.80;57.70
36322;DHT22;23564;48.290;11.460;2022-11-25T12:21:26;6.80;99.90
36322;DHT22;23564;48.290;11.460;2022-11-25T12:29:38;7.00;99.90
36322;DHT22;23564;48.290;11.460;2022-11-25T12:35:11;7.20;99.90
36322;DHT22;23564;48.290;11.460;2022-11-25T12:37:53;7.30;1.00
36322;DHT22;23564;48.290;11.460;2022-11-25T12:40:26;7.40;99.90
36322;DHT22;23564;48.290;11.460;2022-11-25T12:43:05;7.50;99.90
36322;DHT22;23564;48.290;11.460;2022-11-25T12:45:32;7.60;99.90
36322;DHT22;23564;48.290;11.460;2022-11-25T12:47:57;7.80;99.90
36322;DHT22;23564;48.290;11.460;2022-11-25T12:50:46;7.90;99.90
36322;DHT22;23564;48.290;11.460;2022-11-25T12:53:23;8.00;99.90
36322;DHT22;23564;48.290;11.460;2022-11-25T12:55:51;8.10;1.00
36322;DHT22;23564;48.290;11.460;2022-11-25T12:58:42;8.10;88.50
36322;DHT22;23564;48.290;11.460;2022-11-25T13:07:04;8.30;99.90
36322;DHT22;23564;48.290;11.460;2022-11-25T13:09:49;8.30;99.90
36322;DHT22;23564;48.290;11.460;2022-11-25T13:17:39;8.50;99.90
36322;DHT22;23564;48.290;11.460;2022-11-25T13:25:30;8.50;1.00
36322;DHT22;23564;48.290;11.460;2022-11-25T13:27:58;8.50;1.00
36322;DHT22;23564;48.290;11.460;2022-11-25T13:41:22;8.40;1.00
36322;DHT22;23564;48.290;11.460;2022-11-25T13:46:28;8.40;99.90
36322;DHT22;23564;48.290;11.460;2022-11-25T13:48:55;8.50;99.90
36322;DHT22;23564;48.290;11.460;2022-11-25T13:51:22;8.50;99.90
36322;DHT22;23564;48.290;11.460;2022-11-25T13:53:58;8.40;99.90
36322;DHT22;23564;48.290;11.460;2022-11-25T13:56:32;8.40;99.90
36322;DHT22;23564;48.290;11.460;2022-11-25T14:04:12;8.40;99.90
36322;DHT22;23564;48.290;11.460;2022-11-25T14:16:06;8.20;1.00
36322;DHT22;23564;48.290;11.460;2022-11-25T14:27:28;8.00;99.90
36322;DHT22;23564;48.290;11.460;2022-11-25T14:30:03;8.00;99.90
36322;DHT22;23564;48.290;11.460;2022-11-25T14:32:37;7.90;99.90
36322;DHT22;23564;48.290;11.460;2022-11-25T14:35:12;7.90;99.90
36322;DHT22;23564;48.290;11.460;2022-11-25T14:37:49;7.80;99.90
36322;DHT22;23564;48.290;11.460;2022-11-25T14:40:35;7.80;99.90
36322;DHT22;23564;48.290;11.460;2022-11-25T14:43:06;7.80;99.90
36322;DHT22;23564;48.290;11.460;2022-11-25T14:45:34;7.70;99.90
36322;DHT22;23564;48.290;11.460;2022-11-25T14:48:20;7.60;99.90
36322;DHT22;23564;48.290;11.460;2022-11-25T14:51:00;7.60;99.90
36322;DHT22;23564;48.290;11.460;2022-11-25T14:53:27;7.50;1.00
36322;DHT22;23564;48.290;11.460;2022-11-25T14:55:55;7.50;1.00
36322;DHT22;23564;48.290;11.460;2022-11-25T14:58:24;7.40;1.00
36322;DHT22;23564;48.290;11.460;2022-11-25T15:03:24;7.40;1.00
36322;DHT22;23564;48.290;11.460;2022-11-25T15:05:56;7.30;1.00
36322;DHT22;23564;48.290;11.460;2022-11-25T15:08:23;7.20;1.00
36322;DHT22;23564;48.290;11.460;2022-11-25T15:10:57;7.20;1.00
36322;DHT22;23564;48.290;11.460;2022-11-25T15:13:31;7.20;1.00
36322;DHT22;23564;48.290;11.460;2022-11-25T15:18:36;7.20;1.00
36322;DHT22;23564;48.290;11.460;2022-11-25T15:21:03;7.10;1.00
36322;DHT22;23564;48.290;11.460;2022-11-25T15:23:32;7.10;1.00
36322;DHT22;23564;48.290;11.460;2022-11-25T15:26:01;7.10;1.00
36322;DHT22;23564;48.290;11.460;2022-11-25T15:28:33;7.10;1.00
36322;DHT22;23564;48.290;11.460;2022-11-25T15:31:01;7.10;1.00
36322;DHT22;23564;48.290;11.460;2022-11-25T15:33:28;7.10;1.00
36322;DHT22;23564;48.290;11.460;2022-11-25T15:35:54;7.00;1.00
36322;DHT22;23564;48.290;11.460;2022-11-25T15:38:35;7.00;1.00
36322;DHT22;23564;48.290;11.460;2022-11-25T15:41:01;7.00;1.00
36322;DHT22;23564;48.290;11.460;2022-11-25T15:43:29;7.00;1.00
36322;DHT22;23564;48.290;11.460;2022-11-25T15:46:00;7.00;1.00
36322;DHT22;23564;48.290;11.460;2022-11-25T15:48:38;7.00;1.00
36322;DHT22;23564;48.290;11.460;2022-11-25T15:51:27;6.90;1.00
36322;DHT22;23564;48.290;11.460;2022-11-25T15:56:41;6.90;1.00
36322;DHT22;23564;48.290;11.460;2022-11-25T16:02:28;6.90;1.00
36322;DHT22;23564;48.290;11.460;2022-11-25T16:05:14;6.90;1.00
36322;DHT22;23564;48.290;11.460;2022-11-25T16:18:55;6.90;1.00
36322;DHT22;23564;48.290;11.460;2022-11-25T16:21:27;6.90;1.00
36322;DHT22;23564;48.290;11.460;2022-11-25T16:26:35;6.80;1.00
36322;DHT22;23564;48.290;11.460;2022-11-25T16:29:17;6.80;6.40
36322;DHT22;23564;48.290;11.460;2022-11-25T16:31:43;6.80;8.80
36322;DHT22;23564;48.290;11.460;2022-11-25T16:34:13;6.80;8.50
36322;DHT22;23564;48.290;11.460;2022-11-25T16:36:39;6.80;1.00
36322;DHT22;23564;48.290;11.460;2022-11-25T16:39:05;6.80;2.10
36322;DHT22;23564;48.290;11.460;2022-11-25T16:41:31;6.80;9.50
36322;DHT22;23564;48.290;11.460;2022-11-25T16:44:00;6.80;4.90
36322;DHT22;23564;48.290;11.460;2022-11-25T16:46:26;6.80;1.00
36322;DHT22;23564;48.290;11.460;2022-11-25T16:48:52;6.80;1.00
36322;DHT22;23564;48.290;11.460;2022-11-25T16:51:22;6.80;1.00
36322;DHT22;23564;48.290;11.460;2022-11-25T16:53:49;6.80;1.00
36322;DHT22;23564;48.290;11.460;2022-11-25T16:56:26;6.80;1.70
36322;DHT22;23564;48.290;11.460;2022-11-25T16:58:52;6.80;6.10
36322;DHT22;23564;48.290;11.460;2022-11-25T17:01:21;6.80;4.80
36322;DHT22;23564;48.290;11.460;2022-11-25T17:03:47;6.80;1.20
36322;DHT22;23564;48.290;11.460;2022-11-25T17:06:15;6.80;1.00
36322;DHT22;23564;48.290;11.460;2022-11-25T17:08:41;6.80;15.10
36322;DHT22;23564;48.290;11.460;2022-11-25T17:11:20;6.80;7.70
36322;DHT22;23564;48.290;11.460;2022-11-25T17:13:49;6.70;15.60
36322;DHT22;23564;48.290;11.460;2022-11-25T17:16:20;6.80;16.50
36322;DHT22;23564;48.290;11.460;2022-11-25T17:18:47;6.80;14.80
36322;DHT22;23564;48.290;11.460;2022-11-25T17:21:15;6.70;14.40
36322;DHT22;23564;48.290;11.460;2022-11-25T17:23:42;6.70;17.40
36322;DHT22;23564;48.290;11.460;2022-11-25T17:26:25;6.70;16.70
36322;DHT22;23564;48.290;11.460;2022-11-25T17:28:57;6.70;18.10
36322;DHT22;23564;48.290;11.460;2022-11-25T17:31:26;6.70;18.40
36322;DHT22;23564;48.290;11.460;2022-11-25T17:33:53;6.80;19.40
36322;DHT22;23564;48.290;11.460;2022-11-25T17:36:19;6.70;16.70
36322;DHT22;23564;48.290;11.460;2022-11-25T17:38:45;6.70;18.70
36322;DHT22;23564;48.290;11.460;2022-11-25T17:41:21;6.70;19.70
36322;DHT22;23564;48.290;11.460;2022-11-25T17:43:49;6.60;19.60
36322;DHT22;23564;48.290;11.460;2022-11-25T17:46:16;6.70;20.30
36322;DHT22;23564;48.290;11.460;2022-11-25T17:48:42;6.70;20.40
36322;DHT22;23564;48.290;11.460;2022-11-25T17:51:09;6.70;20.10
36322;DHT22;23564;48.290;11.460;2022-11-25T17:53:35;6.60;19.80
36322;DHT22;23564;48.290;11.460;2022-11-25T17:58:44;6.60;19.40
36322;DHT22;23564;48.290;11.460;2022-11-25T18:01:10;6.60;19.20
36322;DHT22;23564;48.290;11.460;2022-11-25T18:03:35;6.50;18.50
36322;DHT22;23564;48.290;11.460;2022-11-25T18:06:01;6.50;19.00
36322;DHT22;23564;48.290;11.460;2022-11-25T18:08:28;6.60;20.40
36322;DHT22;23564;48.290;11.460;2022-11-25T18:10:53;6.50;19.40
36322;DHT22;23564;48.290;11.460;2022-11-25T18:13:20;6.60;19.20
36322;DHT22;23564;48.290;11.460;2022-11-25T18:15:46;6.60;18.70
36322;DHT22;23564;48.290;11.460;2022-11-25T18:18:19;6.60;18.00
36322;DHT22;23564;48.290;11.460;2022-11-25T18:20:45;6.60;16.90
36322;DHT22;23564;48.290;11.460;2022-11-25T18:23:11;6.60;15.10